CheckWX is a tool to help pilots better visualize weather data.  It is not intended as a substitute for an official pre-flight weather briefing.

01:06:12 UTC

SLMG METAR
Magdalena Airport
Magdalena, Bolivia
Current

2 hours ago

SLMG 192300Z 18004KT 6000 FEW020 FEW023CB OVC200 23/21 Q1012
Observed
Aug-19 @ 23:00 UTC
Wind
  • 180° at 4 KTS
Visibility
6,000 meters
Flight Rules
MVFR
Cloud Levels
  • Few at 2,000' AGL
  • Few at 2,300' AGL
  • Overcast at 20,000' AGL
Temperature
23°C / 73°F
Dewpoint
21°C / 70°F
Humidity
89%
Altimeter
29.88" Hg
Pressure
1011.92 hPa
Previous

3 hours ago

SLMG 192200Z 18004KT 6000 SCT020 BKN200 24/21 Q1012
Observed
Aug-19 @ 22:00 UTC
Wind
  • 180° at 4 KTS
Visibility
6,000 meters
Flight Rules
MVFR
Cloud Levels
  • Scattered at 2,000' AGL
  • Broken at 20,000' AGL
Temperature
24°C / 75°F
Dewpoint
21°C / 70°F
Humidity
83%
Altimeter
29.88" Hg
Pressure
1011.92 hPa
Previous

4 hours ago

SLMG 192100Z 18006KT 6000 SCT020 BKN200 24/21 Q1013
Observed
Aug-19 @ 21:00 UTC
Wind
  • 180° at 6 KTS
Visibility
6,000 meters
Flight Rules
MVFR
Cloud Levels
  • Scattered at 2,000' AGL
  • Broken at 20,000' AGL
Temperature
24°C / 75°F
Dewpoint
21°C / 70°F
Humidity
83%
Altimeter
29.91" Hg
Pressure
1012.92 hPa